Sim-Planet VA

Sim-Planet Nouvel Horizon. By: Anthony Pay
Since 2020.




 METAR ET TAF INFORMATION
METAR FOR EGKK
ADDS - METARS form results

(0849 UTC 21 January 2022)
Data provider http://aviationweather.gov/metar/data/
 
METAR text: EGKK 210820Z 27004KT CAVOK M02/M04 Q1039
Conditions at: EGKK (LONDON/GATWICK A, GB) observed 0820 UTC 21 January 2022
Temperature: -2.0°C (28°F)
Dewpoint: -4.0°C (25°F) [RH = 86%]
Pressure (altimeter): 30.68 inches Hg (1039.0 mb)
Winds: from the W (270 degrees) at 5 MPH (4 knots; 2.1 m/s)
Visibility: 6 or more miles (10+ km)
Ceiling: ceiling and visibility are OK
Clouds: unknown
Weather: no significant weather observed at this time

METAR text: EGKK 210750Z VRB01KT CAVOK M02/M04 Q1039
Conditions at: EGKK (LONDON/GATWICK A, GB) observed 0750 UTC 21 January 2022
Temperature: -2.0°C (28°F)
Dewpoint: -4.0°C (25°F) [RH = 86%]
Pressure (altimeter): 30.68 inches Hg (1039.0 mb)
Winds: variable direction winds at 1 MPH (1 knots; 0.5 m/s)
Visibility: 6 or more miles (10+ km)
Ceiling: ceiling and visibility are OK
Clouds: unknown
Weather: no significant weather observed at this time

Forecast for: EGKK (LONDON/GATWICK A, GB)
Text: TAF EGKK 210449Z 2106/2212 28006KT 9999 FEW030
Forecast period: 0600 UTC 21 January 2022 to 1200 UTC 22 January 2022
Forecast type: FROM: standard forecast or significant change
Winds: from the W (280 degrees) at 7 MPH (6 knots; 3.1 m/s)
Visibility: 6 or more miles (10+ km)
Ceiling: at least 12,000 feet AGL
Clouds: few clouds at 3000 feet AGL
Weather: no significant weather forecast for this period

 AÉROPORT DE AÉROPORT

 INFORMATIONS DE PISTE
Piste 08L Longueur de la piste 8415 ft Largeur de la piste 148 ft
Élévation de la piste 195 ft Seuil de la piste déplacés 1053 ft Runway heading 78
Piste 26R Longueur de la piste 8415 ft Largeur de la piste 148 ft
Élévation de la piste 195 ft Seuil de la piste déplacés 1366 ft Runway heading 258
Piste 08R Longueur de la piste 10364 ft Largeur de la piste 148 ft
Élévation de la piste 196 ft Seuil de la piste déplacés 1288 ft Runway heading 78
Piste 26L Longueur de la piste 10364 ft Largeur de la piste 148 ft
Élévation de la piste 196 ft Seuil de la piste déplacés 878 ft Runway heading 258

 AÉROPORT FRÉQUENCES
Type APP Nom APP Féquence 126.825 MHZ
Type ATIS Nom ATIS Féquence 136.525 MHZ
Type CLD Nom CLNC DEL Féquence 121.95 MHZ
Type GND Nom GND Féquence 121.8 MHZ
Type TWR Nom TWR Féquence 124.225 MHZ

 SIDA DE NAVIGATION
Type NDB Nom Gatwick Féquence 338 KHZ
Type NDB Nom Gatwick Féquence 365 KHZ

Nos Partenaires